Terminal Aerodrome Forecast
Issued by NWS

Home | Current Version | Previous Version | Text Only | Print | Product List | Glossary On
Versions: 1 2 3 4 5 6 7 8 9 10 11 12 13 14 15 16 17 18
796
FTUS43 KPAH 161720
TAFCGI
TAF
KCGI 161720Z 1618/1718 18005KT P6SM SCT050
      TEMPO 1618/1622 BKN050
     FM170000 VRB03KT P6SM SKC
     FM170900 00000KT 4SM BR SCT250
     FM171400 16004KT P6SM SCT030 BKN250=

USA.gov is the U.S. government's official web portal to all federal, state and local government web resources and services.